Time;durP1;ratioP1;P1;durP2;ratioP2;P2;SDS_P1;SDS_P2;PMS_P1;PMS_P2;Temp;Humidity;BMP_temperature;BMP_pressure;BME280_temperature;BME280_humidity;BME280_pressure;Samples;Min_cycle;Max_cycle;Signal;HPM_P1;HPM_P2
2022/01/04 00:01:57;;;;;;;2.33;1.17;;;10.10;99.90;;;;;;5109433;28;20630;-87
2022/01/04 00:04:27;;;;;;;1.63;1.23;;;10.10;99.90;;;;;;5109164;28;20478;-86
2022/01/04 00:06:59;;;;;;;1.87;1.30;;;10.10;99.90;;;;;;5108990;28;20471;-86
2022/01/04 00:09:26;;;;;;;1.80;1.35;;;10.10;99.90;;;;;;5109132;28;20462;-86
2022/01/04 00:13:21;;;;;;;2.00;1.20;;;10.10;99.90;;;;;;5108625;28;20205;-87
2022/01/04 00:14:49;;;;;;;1.92;1.10;;;10.10;99.90;;;;;;5088376;28;20452;-87
2022/01/04 00:17:15;;;;;;;2.00;1.80;;;10.10;99.90;;;;;;5095820;28;20205;-87
2022/01/04 00:19:42;;;;;;;1.70;1.55;;;10.10;99.90;;;;;;5109194;28;20553;-86
2022/01/04 00:22:09;;;;;;;1.40;1.30;;;10.10;99.90;;;;;;5108406;28;20656;-87
2022/01/04 00:24:39;;;;;;;1.27;1.25;;;10.00;99.90;;;;;;5108620;28;20506;-86
2022/01/04 00:27:07;;;;;;;1.20;1.10;;;9.90;99.90;;;;;;5108912;28;20318;-87
2022/01/04 00:29:36;;;;;;;1.00;0.90;;;9.90;99.90;;;;;;5108918;28;20208;-86
2022/01/04 00:32:04;;;;;;;1.80;1.70;;;9.90;99.90;;;;;;5108412;28;20477;-86
2022/01/04 00:34:31;;;;;;;2.15;1.20;;;9.90;99.90;;;;;;5107397;28;20240;-86
2022/01/04 00:36:58;;;;;;;1.35;1.10;;;9.90;99.90;;;;;;5108456;28;20201;-86
2022/01/04 00:39:25;;;;;;;2.00;1.85;;;9.90;99.90;;;;;;5098416;28;20214;-86
2022/01/04 00:41:59;;;;;;;1.37;1.10;;;9.80;99.90;;;;;;5094725;28;20250;-86
2022/01/04 00:44:36;;;;;;;8.23;1.60;;;9.90;99.90;;;;;;5094694;28;20481;-85
2022/01/04 00:47:20;;;;;;;1.75;1.65;;;10.00;99.90;;;;;;5094903;28;20212;-87
2022/01/04 00:49:46;;;;;;;1.40;1.00;;;10.00;99.90;;;;;;5094989;28;20291;-86
2022/01/04 00:52:16;;;;;;;1.90;1.17;;;10.00;99.90;;;;;;5094739;28;20189;-86
2022/01/04 00:54:45;;;;;;;1.63;1.50;;;10.00;99.90;;;;;;5088468;22;20238;-88
2022/01/04 00:57:12;;;;;;;1.10;1.10;;;10.10;99.90;;;;;;5050180;28;20207;-87
2022/01/04 00:59:40;;;;;;;1.20;0.82;;;10.00;99.90;;;;;;5050357;28;20204;-86
2022/01/04 01:02:07;;;;;;;1.37;1.20;;;10.00;99.90;;;;;;5048102;28;20197;-86
2022/01/04 01:04:34;;;;;;;1.57;1.10;;;10.10;99.90;;;;;;5049664;28;21002;-86
2022/01/04 01:07:00;;;;;;;2.35;1.15;;;10.10;99.90;;;;;;5050357;28;20491;-87
2022/01/04 01:09:31;;;;;;;0.75;0.75;;;10.00;99.90;;;;;;5049492;28;20246;-87
2022/01/04 01:11:58;;;;;;;2.35;1.40;;;10.00;99.90;;;;;;5049755;28;20200;-86
2022/01/04 01:14:25;;;;;;;1.37;1.10;;;10.00;99.90;;;;;;5050134;28;20220;-88
2022/01/04 01:16:53;;;;;;;1.00;1.00;;;10.00;99.90;;;;;;5050012;28;20458;-88
2022/01/04 01:19:21;;;;;;;1.25;1.17;;;10.00;99.90;;;;;;5049887;28;20226;-86
2022/01/04 01:21:48;;;;;;;1.10;1.00;;;10.10;99.90;;;;;;5049258;28;20232;-89
2022/01/04 01:24:14;;;;;;;1.23;1.00;;;10.10;99.90;;;;;;5050214;28;20512;-88
2022/01/04 01:26:41;;;;;;;3.53;1.70;;;10.10;99.90;;;;;;5044624;28;20213;-87
2022/01/04 01:29:08;;;;;;;2.08;1.98;;;10.00;99.90;;;;;;5043433;28;20267;-87
2022/01/04 01:31:35;;;;;;;1.98;1.88;;;10.00;99.90;;;;;;5042083;28;20295;-86
2022/01/04 01:34:03;;;;;;;1.40;1.27;;;10.00;99.90;;;;;;5042946;28;20691;-86
2022/01/04 01:36:31;;;;;;;1.85;1.75;;;10.00;99.90;;;;;;5044113;28;20474;-86
2022/01/04 01:38:58;;;;;;;4.13;1.33;;;10.00;99.90;;;;;;5042829;28;20674;-88
2022/01/04 01:41:24;;;;;;;2.03;1.53;;;10.00;99.90;;;;;;5043445;28;20222;-89
2022/01/04 01:43:51;;;;;;;1.43;1.33;;;10.00;99.90;;;;;;5055739;28;20474;-87
2022/01/04 01:46:18;;;;;;;2.00;1.90;;;10.00;99.90;;;;;;5044502;28;20487;-86
2022/01/04 01:48:45;;;;;;;1.23;1.13;;;10.00;99.90;;;;;;5041824;28;20227;-86
2022/01/04 01:51:16;;;;;;;2.00;1.50;;;10.10;99.90;;;;;;5040930;28;20210;-86
2022/01/04 01:53:43;;;;;;;1.80;1.60;;;10.10;99.90;;;;;;5041999;28;20259;-86
2022/01/04 01:56:10;;;;;;;1.70;1.60;;;10.00;99.90;;;;;;5044936;28;20439;-86
2022/01/04 01:58:36;;;;;;;1.90;1.80;;;9.90;99.90;;;;;;5049903;28;20446;-87
2022/01/04 02:01:03;;;;;;;1.40;1.30;;;10.00;99.90;;;;;;5034527;28;20236;-86
2022/01/04 02:03:30;;;;;;;2.97;1.95;;;9.90;99.90;;;;;;5046820;28;20259;-87
2022/01/04 02:05:57;;;;;;;2.28;2.03;;;9.90;99.90;;;;;;5038029;28;20287;-87
2022/01/04 02:08:25;;;;;;;2.55;1.77;;;9.90;99.90;;;;;;5049878;28;20725;-86
2022/01/04 02:10:53;;;;;;;1.70;1.60;;;9.80;99.90;;;;;;5044791;28;20201;-88
2022/01/04 02:13:19;;;;;;;1.88;1.52;;;9.80;99.90;;;;;;5042918;28;20200;-87
2022/01/04 02:15:46;;;;;;;1.70;1.60;;;9.70;99.90;;;;;;5034503;28;20473;-87
2022/01/04 02:18:13;;;;;;;1.65;1.55;;;9.80;99.90;;;;;;5038883;28;20191;-89
2022/01/04 02:20:41;;;;;;;1.90;1.75;;;9.70;99.90;;;;;;5041840;28;20203;-87
2022/01/04 02:23:09;;;;;;;1.63;1.52;;;9.70;99.90;;;;;;5048354;28;20264;-88
2022/01/04 02:25:35;;;;;;;1.77;1.50;;;9.80;99.90;;;;;;5041639;28;20206;-87
2022/01/04 02:28:02;;;;;;;1.58;1.48;;;9.80;99.90;;;;;;5044184;28;20483;-89
2022/01/04 02:30:30;;;;;;;1.92;1.80;;;9.90;99.90;;;;;;5045461;28;20227;-88
2022/01/04 02:32:57;;;;;;;1.58;1.35;;;10.00;99.90;;;;;;5048605;28;20217;-85
2022/01/04 02:35:30;;;;;;;1.90;1.75;;;9.90;99.90;;;;;;5038890;28;20224;-87
2022/01/04 02:37:59;;;;;;;2.38;1.38;;;10.00;99.90;;;;;;5037145;28;20261;-86
2022/01/04 02:40:27;;;;;;;1.73;1.63;;;10.00;99.90;;;;;;5039637;28;20270;-87
2022/01/04 02:42:55;;;;;;;1.85;1.67;;;10.00;99.90;;;;;;5043840;28;20200;-86
2022/01/04 02:45:22;;;;;;;1.60;1.50;;;10.10;99.90;;;;;;5041014;28;20227;-88
2022/01/04 02:47:49;;;;;;;1.17;1.17;;;10.20;99.90;;;;;;5046968;28;21076;-86
2022/01/04 02:50:16;;;;;;;2.20;1.60;;;10.20;99.90;;;;;;5045718;28;20451;-88
2022/01/04 02:52:43;;;;;;;1.13;1.13;;;10.10;99.90;;;;;;5039443;28;20531;-86
2022/01/04 02:55:14;;;;;;;1.40;1.30;;;10.20;99.90;;;;;;5042693;28;20513;-87
2022/01/04 02:57:42;;;;;;;1.73;1.63;;;10.20;99.90;;;;;;5037500;28;20513;-86
2022/01/04 03:00:12;;;;;;;1.60;1.50;;;10.20;99.90;;;;;;5045072;28;20458;-86
2022/01/04 03:02:39;;;;;;;1.93;1.83;;;10.20;99.90;;;;;;5042941;28;20459;-87
2022/01/04 03:05:07;;;;;;;2.20;1.43;;;10.30;99.90;;;;;;5044803;28;20537;-87
2022/01/04 03:07:34;;;;;;;3.03;1.77;;;10.30;99.90;;;;;;5039477;28;21100;-86
2022/01/04 03:10:04;;;;;;;1.60;1.50;;;10.30;99.90;;;;;;5038563;28;20448;-86
2022/01/04 03:12:32;;;;;;;1.87;1.77;;;10.30;99.90;;;;;;5038337;28;20460;-86
2022/01/04 03:14:59;;;;;;;1.63;1.40;;;10.30;99.90;;;;;;5040742;28;20477;-86
2022/01/04 03:17:26;;;;;;;1.67;1.57;;;10.30;99.90;;;;;;5041746;28;20449;-87
2022/01/04 03:19:53;;;;;;;1.40;1.30;;;10.40;99.90;;;;;;5040451;28;20543;-88
2022/01/04 03:22:20;;;;;;;1.50;1.40;;;10.30;99.90;;;;;;5033012;28;20213;-88
2022/01/04 03:24:47;;;;;;;1.73;1.63;;;10.30;99.90;;;;;;5044207;28;20513;-88
2022/01/04 03:27:14;;;;;;;1.10;1.10;;;10.30;99.90;;;;;;5030154;28;20530;-88
2022/01/04 03:29:43;;;;;;;1.53;1.40;;;10.30;99.90;;;;;;5035162;28;20569;-86
2022/01/04 03:32:10;;;;;;;1.73;1.60;;;10.30;99.90;;;;;;5034204;28;21021;-86
2022/01/04 03:34:36;;;;;;;1.73;1.50;;;10.20;99.90;;;;;;5038606;28;20245;-87
2022/01/04 03:37:04;;;;;;;1.70;1.60;;;10.30;99.90;;;;;;5033175;28;20206;-87
2022/01/04 03:39:31;;;;;;;1.35;1.25;;;10.30;99.90;;;;;;5023144;28;20204;-87
2022/01/04 03:41:57;;;;;;;1.38;1.10;;;10.30;99.90;;;;;;5032736;28;20201;-87
2022/01/04 03:44:24;;;;;;;1.65;1.48;;;10.30;99.90;;;;;;5038002;28;20220;-87
2022/01/04 03:46:56;;;;;;;2.30;1.70;;;10.20;99.90;;;;;;5036003;28;20240;-88
2022/01/04 03:49:23;;;;;;;1.25;1.25;;;10.20;99.90;;;;;;5039824;28;21014;-87
2022/01/04 03:51:50;;;;;;;2.22;2.13;;;10.20;99.90;;;;;;5048503;28;20583;-87
2022/01/04 03:54:19;;;;;;;3.20;1.60;;;10.20;99.90;;;;;;5049086;28;20234;-88
2022/01/04 03:56:46;;;;;;;1.90;1.35;;;10.20;99.90;;;;;;5050592;28;20446;-88
2022/01/04 03:59:13;;;;;;;2.60;1.60;;;10.20;99.90;;;;;;5049465;28;20231;-86
2022/01/04 04:01:40;;;;;;;2.75;1.33;;;10.20;99.90;;;;;;5045635;28;20479;-86
2022/01/04 04:04:08;;;;;;;1.73;1.63;;;10.10;99.90;;;;;;5039096;28;20232;-86
2022/01/04 04:06:36;;;;;;;1.23;1.23;;;10.10;99.90;;;;;;5039243;28;20266;-85
2022/01/04 04:09:02;;;;;;;1.48;1.38;;;10.10;99.90;;;;;;5039102;28;20227;-86
2022/01/04 04:11:29;;;;;;;1.83;1.73;;;10.10;99.90;;;;;;5040181;28;20723;-86
2022/01/04 04:13:56;;;;;;;1.40;1.30;;;10.20;99.90;;;;;;5042997;28;20478;-87
2022/01/04 04:16:23;;;;;;;1.40;1.30;;;10.20;99.90;;;;;;5050289;28;20272;-87
2022/01/04 04:18:50;;;;;;;1.60;1.50;;;10.20;99.90;;;;;;5051877;28;20212;-86
2022/01/04 04:21:18;;;;;;;1.67;1.58;;;10.20;99.90;;;;;;5051452;28;20217;-87
2022/01/04 04:23:45;;;;;;;1.33;1.23;;;10.10;99.90;;;;;;5051184;28;20224;-86
2022/01/04 04:26:12;;;;;;;0.95;0.93;;;10.10;99.90;;;;;;5050161;28;20208;-87
2022/01/04 04:28:39;;;;;;;1.50;1.40;;;10.10;99.90;;;;;;5049929;28;20224;-87
2022/01/04 04:31:05;;;;;;;2.40;2.30;;;10.20;99.90;;;;;;5050487;28;20295;-87
2022/01/04 04:33:33;;;;;;;2.25;1.38;;;10.10;99.90;;;;;;5050267;28;20739;-87
2022/01/04 04:36:00;;;;;;;1.08;0.98;;;10.10;99.90;;;;;;5052026;28;20723;-85
2022/01/04 04:38:28;;;;;;;1.30;1.20;;;10.10;99.90;;;;;;5053062;28;20276;-87
2022/01/04 04:40:55;;;;;;;1.23;1.00;;;10.20;99.90;;;;;;5053654;28;20209;-87
2022/01/04 04:43:22;;;;;;;1.40;1.30;;;10.10;99.90;;;;;;5054310;28;20469;-87
2022/01/04 04:45:49;;;;;;;1.50;1.40;;;10.10;99.90;;;;;;5055540;28;20450;-88
2022/01/04 04:48:15;;;;;;;1.30;1.20;;;10.20;99.90;;;;;;5058633;28;20494;-88
2022/01/04 04:50:42;;;;;;;1.27;1.15;;;10.10;99.90;;;;;;5059143;28;20534;-87
2022/01/04 04:53:09;;;;;;;1.17;1.17;;;10.20;99.90;;;;;;5059142;28;20191;-89
2022/01/04 04:55:37;;;;;;;1.13;1.02;;;10.20;99.90;;;;;;5077810;28;20194;-88
2022/01/04 04:58:04;;;;;;;1.15;1.05;;;10.20;99.90;;;;;;5078902;28;20197;-88
2022/01/04 05:00:31;;;;;;;1.73;1.45;;;10.20;99.90;;;;;;5078640;28;20268;-88
2022/01/04 05:02:58;;;;;;;1.58;1.48;;;10.20;99.90;;;;;;5077755;28;20197;-88
2022/01/04 05:05:24;;;;;;;1.25;1.15;;;10.20;99.90;;;;;;5074985;28;20288;-88
2022/01/04 05:07:51;;;;;;;1.42;1.30;;;10.20;99.90;;;;;;5074860;28;20216;-88
2022/01/04 05:10:18;;;;;;;1.25;1.15;;;10.20;99.90;;;;;;5075170;28;20265;-87
2022/01/04 05:12:46;;;;;;;1.13;1.08;;;10.30;99.90;;;;;;5074890;28;20195;-87
2022/01/04 05:15:13;;;;;;;1.80;1.15;;;10.20;99.90;;;;;;5076403;28;20226;-88
2022/01/04 05:17:40;;;;;;;1.50;1.40;;;10.20;99.90;;;;;;5076065;28;20270;-87
2022/01/04 05:20:08;;;;;;;1.70;1.60;;;10.20;99.90;;;;;;5075387;28;20205;-87
2022/01/04 05:22:36;;;;;;;4.15;1.85;;;10.20;99.90;;;;;;5075108;28;20266;-88
2022/01/04 05:25:03;;;;;;;1.50;1.40;;;10.20;99.90;;;;;;5074707;28;20281;-87
2022/01/04 05:27:30;;;;;;;1.47;1.37;;;10.20;99.90;;;;;;5076178;28;20300;-88
2022/01/04 05:29:58;;;;;;;1.90;1.73;;;10.10;99.90;;;;;;5075678;28;20487;-88
2022/01/04 05:32:25;;;;;;;1.77;1.42;;;10.10;99.90;;;;;;5069919;28;20270;-86
2022/01/04 05:34:52;;;;;;;1.87;1.07;;;10.10;99.90;;;;;;5065693;28;20226;-88
2022/01/04 05:37:19;;;;;;;1.27;1.27;;;10.10;99.90;;;;;;5062111;28;20483;-86
2022/01/04 05:39:46;;;;;;;2.78;1.50;;;10.10;99.90;;;;;;5062040;28;20203;-87
2022/01/04 05:42:13;;;;;;;1.63;1.52;;;10.10;99.90;;;;;;5069118;28;20214;-87
2022/01/04 05:44:40;;;;;;;0.90;0.90;;;10.10;99.90;;;;;;5072387;28;20244;-86
2022/01/04 05:47:08;;;;;;;1.47;1.23;;;10.00;99.90;;;;;;5061386;28;20242;-86
2022/01/04 05:49:36;;;;;;;1.38;1.27;;;10.00;99.90;;;;;;5060115;28;20482;-86
2022/01/04 05:52:05;;;;;;;1.10;0.90;;;10.00;99.90;;;;;;5059015;28;20614;-86
2022/01/04 05:54:32;;;;;;;1.40;1.30;;;10.00;99.90;;;;;;5060347;28;20239;-86
2022/01/04 05:56:59;;;;;;;1.55;1.45;;;10.00;99.90;;;;;;5059112;28;20302;-87
2022/01/04 05:59:27;;;;;;;1.80;1.45;;;10.00;99.90;;;;;;5057180;28;20292;-87
2022/01/04 06:01:54;;;;;;;1.98;1.88;;;10.10;99.90;;;;;;5057146;28;20199;-87
2022/01/04 06:04:22;;;;;;;2.13;1.48;;;10.10;99.90;;;;;;5057047;28;20234;-87
2022/01/04 06:06:50;;;;;;;1.80;1.30;;;10.10;99.90;;;;;;5057145;28;20289;-87
2022/01/04 06:09:22;;;;;;;2.90;1.58;;;10.10;99.90;;;;;;5056951;28;20288;-87
2022/01/04 06:11:59;;;;;;;2.80;1.58;;;10.10;99.90;;;;;;5056645;28;20209;-87
2022/01/04 06:17:11;;;;;;;1.30;1.20;;;10.10;99.90;;;;;;5056921;28;20248;-87
2022/01/04 06:19:40;;;;;;;1.40;1.30;;;10.10;99.90;;;;;;5056464;28;20269;-87
2022/01/04 06:22:08;;;;;;;1.70;1.42;;;10.10;99.90;;;;;;5056465;28;20484;-87
2022/01/04 06:24:36;;;;;;;1.20;1.10;;;10.00;99.90;;;;;;5056489;28;20219;-88
2022/01/04 06:27:07;;;;;;;2.10;2.00;;;10.10;99.90;;;;;;5057036;28;20487;-87
2022/01/04 06:29:34;;;;;;;1.60;1.50;;;10.10;99.90;;;;;;5056610;28;20218;-86
2022/01/04 06:32:01;;;;;;;1.80;1.30;;;10.00;99.90;;;;;;5056368;28;20231;-87
2022/01/04 06:34:28;;;;;;;1.30;1.20;;;10.10;99.90;;;;;;5056745;28;20250;-87
2022/01/04 06:36:56;;;;;;;1.35;1.25;;;10.10;99.90;;;;;;5055774;28;20306;-89
2022/01/04 06:39:23;;;;;;;1.85;1.50;;;10.10;99.90;;;;;;5056883;28;20289;-87
2022/01/04 06:41:50;;;;;;;2.22;1.35;;;10.10;99.90;;;;;;5056963;28;20250;-86
2022/01/04 06:44:18;;;;;;;4.05;2.20;;;10.10;99.90;;;;;;5056921;28;20230;-88
2022/01/04 06:46:45;;;;;;;1.63;1.52;;;10.10;99.90;;;;;;5062803;28;20263;-86
2022/01/04 06:49:13;;;;;;;1.23;1.13;;;10.10;99.90;;;;;;5056150;28;20222;-87
2022/01/04 06:51:40;;;;;;;1.42;1.15;;;10.10;99.90;;;;;;5056650;28;20458;-87
2022/01/04 06:54:10;;;;;;;1.13;0.90;;;10.10;99.90;;;;;;5056608;28;20233;-87
2022/01/04 06:56:37;;;;;;;1.15;1.05;;;10.10;99.90;;;;;;5056396;28;20230;-87
2022/01/04 06:59:05;;;;;;;1.10;0.95;;;10.00;99.90;;;;;;5056236;28;20234;-89
2022/01/04 07:01:33;;;;;;;1.60;1.33;;;10.00;99.90;;;;;;5057353;28;20219;-87
2022/01/04 07:04:02;;;;;;;0.93;0.93;;;10.10;99.90;;;;;;5036481;28;20725;-86
2022/01/04 07:06:29;;;;;;;1.20;1.10;;;10.20;99.90;;;;;;5035685;28;20227;-87
2022/01/04 07:08:59;;;;;;;1.15;1.05;;;10.10;99.90;;;;;;5037638;28;20289;-86
2022/01/04 07:11:41;;;;;;;1.23;1.17;;;10.20;99.90;;;;;;5056915;28;20212;-87
2022/01/04 07:14:08;;;;;;;2.75;1.40;;;10.10;99.90;;;;;;5056363;28;20253;-85
2022/01/04 07:21:29;;;;;;;1.45;1.35;;;10.20;99.90;;;;;;4960184;28;20275;-87
2022/01/04 08:22:05;;;;;;;1.37;0.70;;;11.10;99.90;;;;;;4879520;29;20456;-85
2022/01/04 08:24:33;;;;;;;0.67;0.67;;;11.20;99.90;;;;;;4996331;28;20487;-80
2022/01/04 08:27:00;;;;;;;0.80;0.80;;;11.20;99.90;;;;;;4993620;28;20445;-79
2022/01/04 08:29:27;;;;;;;0.90;0.90;;;11.20;99.90;;;;;;5047471;28;20484;-80
2022/01/04 08:31:54;;;;;;;1.13;1.00;;;11.30;99.90;;;;;;5060573;28;20463;-81
2022/01/04 08:34:21;;;;;;;1.23;1.00;;;11.30;99.90;;;;;;5063048;28;20482;-80
2022/01/04 08:36:48;;;;;;;1.17;1.07;;;11.40;99.90;;;;;;5057848;28;20463;-80
2022/01/04 08:39:15;;;;;;;1.57;0.90;;;11.40;99.90;;;;;;5062625;28;20961;-80
2022/01/04 08:41:45;;;;;;;1.10;1.10;;;11.40;99.90;;;;;;5073569;28;20454;-80
2022/01/04 08:44:12;;;;;;;0.90;0.90;;;11.40;99.90;;;;;;5094570;28;20460;-80
2022/01/04 08:46:40;;;;;;;1.37;0.90;;;11.40;99.90;;;;;;5097958;28;22116;-78
2022/01/04 08:49:08;;;;;;;4.83;1.40;;;11.50;99.90;;;;;;5083723;28;20843;-79
2022/01/04 08:51:37;;;;;;;0.83;0.77;;;11.50;99.90;;;;;;5078266;28;20457;-80
2022/01/04 08:54:04;;;;;;;1.27;1.17;;;11.60;99.90;;;;;;5057975;28;21174;-79
2022/01/04 08:56:32;;;;;;;0.73;0.70;;;11.60;99.90;;;;;;5059003;28;20461;-80
2022/01/04 08:59:03;;;;;;;0.97;0.97;;;11.60;99.90;;;;;;5068232;28;20462;-79
2022/01/04 09:01:30;;;;;;;0.77;0.77;;;11.70;99.90;;;;;;5076812;28;20807;-79
2022/01/04 09:03:58;;;;;;;1.20;0.63;;;11.70;99.90;;;;;;5058870;28;20479;-78
2022/01/04 09:06:25;;;;;;;0.80;0.70;;;11.70;99.90;;;;;;5059260;28;20963;-82
2022/01/04 09:08:55;;;;;;;1.70;1.00;;;11.80;99.90;;;;;;5057738;28;20462;-80
2022/01/04 09:11:23;;;;;;;1.00;0.90;;;11.80;99.90;;;;;;5070436;28;20454;-81
2022/01/04 09:14:00;;;;;;;1.17;1.00;;;11.90;99.90;;;;;;5078457;28;20485;-79
2022/01/04 09:19:14;;;;;;;1.13;1.10;;;11.90;99.90;;;;;;5099945;28;20892;-84
2022/01/04 09:21:40;;;;;;;1.10;1.07;;;11.90;99.90;;;;;;5083220;28;20472;-83
2022/01/04 09:24:07;;;;;;;0.90;0.90;;;11.80;99.90;;;;;;5085060;28;21007;-82
2022/01/04 09:26:34;;;;;;;0.70;0.70;;;11.80;99.90;;;;;;5097131;28;20457;-84
2022/01/04 09:29:01;;;;;;;0.85;0.80;;;11.80;99.90;;;;;;5086306;28;20462;-84
2022/01/04 09:31:29;;;;;;;0.80;0.80;;;11.80;99.90;;;;;;5095226;28;20215;-84
2022/01/04 09:33:58;;;;;;;1.00;1.00;;;11.80;99.90;;;;;;5100923;28;20523;-83
2022/01/04 09:36:25;;;;;;;1.40;0.97;;;11.80;99.90;;;;;;5101697;28;20457;-84
2022/01/04 09:38:52;;;;;;;1.33;0.97;;;11.60;99.90;;;;;;5101062;28;20536;-83
2022/01/04 09:41:18;;;;;;;1.10;1.10;;;11.70;99.90;;;;;;5101495;28;20505;-83
2022/01/04 09:43:45;;;;;;;1.10;0.90;;;11.70;99.90;;;;;;5107048;28;20468;-83
2022/01/04 09:46:12;;;;;;;1.70;0.90;;;11.60;99.90;;;;;;5103903;28;20462;-82
2022/01/04 09:48:40;;;;;;;1.50;1.40;;;11.60;99.90;;;;;;5099726;28;20460;-85
2022/01/04 09:51:10;;;;;;;1.63;1.53;;;11.60;99.90;;;;;;5096415;28;20844;-85
2022/01/04 09:53:37;;;;;;;2.20;0.90;;;11.60;99.90;;;;;;5085489;28;20515;-85
2022/01/04 09:56:04;;;;;;;1.27;1.17;;;11.50;99.90;;;;;;5093349;28;20981;-83
2022/01/04 09:58:32;;;;;;;0.90;0.87;;;11.50;99.90;;;;;;5066899;28;20455;-83
2022/01/04 10:00:58;;;;;;;1.17;1.00;;;11.50;99.90;;;;;;5064239;28;20494;-85
2022/01/04 10:03:29;;;;;;;1.20;1.10;;;11.50;99.90;;;;;;5066692;28;20460;-84
2022/01/04 10:06:08;;;;;;;1.37;1.20;;;11.50;99.90;;;;;;5065928;28;20455;-83
2022/01/04 10:08:50;;;;;;;1.90;1.23;;;11.50;99.90;;;;;;5080845;28;20478;-83
2022/01/04 10:11:17;;;;;;;1.20;1.07;;;11.50;99.90;;;;;;5070000;28;20897;-84
2022/01/04 10:13:43;;;;;;;1.30;1.20;;;11.50;99.90;;;;;;5091278;28;20468;-85
2022/01/04 10:16:15;;;;;;;1.10;1.07;;;11.40;99.90;;;;;;5102543;28;20966;-84
2022/01/04 10:18:46;;;;;;;3.00;1.40;;;11.40;99.90;;;;;;5086845;28;20450;-82
2022/01/04 10:21:16;;;;;;;1.20;1.10;;;11.40;99.90;;;;;;5069165;28;20522;-83
2022/01/04 10:23:55;;;;;;;2.13;1.33;;;11.50;99.90;;;;;;5093463;28;20461;-84
2022/01/04 10:26:35;;;;;;;1.83;1.17;;;11.50;99.90;;;;;;5090064;28;20449;-83
2022/01/04 10:29:18;;;;;;;3.60;2.60;;;11.50;99.90;;;;;;5084486;28;20438;-85
2022/01/04 10:32:09;;;;;;;1.37;1.27;;;11.50;99.90;;;;;;5081536;28;20445;-84
2022/01/04 10:34:46;;;;;;;1.87;0.83;;;11.60;99.90;;;;;;5080942;28;20552;-85
2022/01/04 10:37:34;;;;;;;2.07;1.87;;;11.60;99.90;;;;;;5078157;28;20446;-85
2022/01/04 10:40:06;;;;;;;1.80;1.00;;;11.70;99.90;;;;;;5079688;28;20442;-89
2022/01/04 10:42:33;;;;;;;3.17;1.57;;;11.80;99.90;;;;;;5083109;28;20459;-86
2022/01/04 10:45:00;;;;;;;1.70;1.60;;;11.80;99.90;;;;;;5084217;28;20470;-87
2022/01/04 10:47:28;;;;;;;1.07;0.97;;;11.80;99.90;;;;;;5084913;28;20468;-83
2022/01/04 10:49:55;;;;;;;1.20;1.10;;;11.80;99.90;;;;;;5083858;28;20549;-83
2022/01/04 10:52:32;;;;;;;1.20;1.20;;;11.90;99.90;;;;;;5072738;28;20477;-85
2022/01/04 10:55:19;;;;;;;1.20;1.10;;;11.90;99.90;;;;;;5085232;28;20875;-84
2022/01/04 10:57:45;;;;;;;1.17;1.17;;;11.90;99.90;;;;;;5066044;28;20442;-82
2022/01/04 11:00:16;;;;;;;1.17;1.07;;;11.80;99.90;;;;;;5065195;28;20437;-86
2022/01/04 11:02:43;;;;;;;1.67;1.57;;;11.90;99.90;;;;;;5062940;28;20447;-85
2022/01/04 11:05:13;;;;;;;1.80;1.00;;;11.90;99.90;;;;;;5063700;28;20466;-85
2022/01/04 11:07:58;;;;;;;1.93;1.83;;;11.90;99.90;;;;;;5084334;28;20452;-84
2022/01/04 11:10:28;;;;;;;1.90;1.30;;;11.90;99.90;;;;;;5083638;28;20482;-84
2022/01/04 11:12:57;;;;;;;1.47;1.47;;;11.90;99.90;;;;;;5064003;28;20459;-84
2022/01/04 11:15:25;;;;;;;2.07;1.50;;;11.80;99.90;;;;;;5063798;28;20473;-85
2022/01/04 11:17:52;;;;;;;1.90;1.77;;;11.90;99.90;;;;;;5063162;28;20454;-84
2022/01/04 11:20:18;;;;;;;2.10;1.57;;;12.00;99.90;;;;;;5074260;28;20459;-86
2022/01/04 11:22:48;;;;;;;1.10;1.10;;;11.90;99.90;;;;;;5104919;28;20462;-84
2022/01/04 11:25:16;;;;;;;1.93;1.40;;;12.00;99.90;;;;;;5105365;28;20551;-88
2022/01/04 11:27:44;;;;;;;3.70;1.73;;;12.00;99.90;;;;;;5105751;28;20457;-81
2022/01/04 11:30:17;;;;;;;1.53;1.43;;;12.00;99.90;;;;;;5105498;28;20485;-84
2022/01/04 11:32:49;;;;;;;1.10;1.10;;;12.00;99.90;;;;;;5091469;28;20817;-85
2022/01/04 11:35:20;;;;;;;1.93;1.40;;;12.00;99.90;;;;;;5089442;28;20843;-86
2022/01/04 11:38:01;;;;;;;2.17;1.97;;;11.90;99.90;;;;;;5099603;28;20464;-83
2022/01/04 11:40:34;;;;;;;1.60;1.50;;;11.90;99.90;;;;;;5093149;28;20438;-84
2022/01/04 11:45:42;;;;;;;1.70;1.60;;;11.90;99.90;;;;;;5091175;22;20511;-86
2022/01/04 11:48:26;;;;;;;1.70;1.60;;;11.80;99.90;;;;;;5064201;28;20459;-86
2022/01/04 11:50:54;;;;;;;2.50;1.30;;;11.70;99.90;;;;;;5056725;28;20483;-83
2022/01/04 11:53:21;;;;;;;1.60;1.50;;;11.70;99.90;;;;;;5067604;28;20461;-83
2022/01/04 11:55:52;;;;;;;3.15;1.65;;;11.50;99.90;;;;;;5058707;28;20458;-83
2022/01/04 11:58:25;;;;;;;1.40;1.30;;;11.60;99.90;;;;;;5059473;28;20208;-82
2022/01/04 12:01:04;;;;;;;1.80;1.40;;;11.50;99.90;;;;;;5065809;28;20891;-85
2022/01/04 12:03:39;;;;;;;2.13;1.90;;;11.50;99.90;;;;;;5070251;28;21039;-85
2022/01/04 12:06:07;;;;;;;1.80;1.70;;;11.50;99.90;;;;;;5071680;28;20447;-84
2022/01/04 12:08:36;;;;;;;3.47;1.50;;;11.40;99.90;;;;;;5072324;28;20458;-83
2022/01/04 12:11:04;;;;;;;1.73;1.63;;;11.50;99.90;;;;;;5063187;28;20487;-83
2022/01/04 12:13:50;;;;;;;2.03;1.60;;;11.40;99.90;;;;;;5060310;28;20852;-83
2022/01/04 12:16:29;;;;;;;1.13;1.10;;;11.50;99.90;;;;;;5062300;28;20436;-84
2022/01/04 12:18:57;;;;;;;2.13;2.03;;;11.40;99.90;;;;;;5067383;28;20450;-84
2022/01/04 12:21:42;;;;;;;1.57;1.47;;;11.50;99.90;;;;;;5066990;28;20529;-84
2022/01/04 12:24:12;;;;;;;2.30;1.70;;;11.50;99.90;;;;;;5069948;28;20465;-84
2022/01/04 12:26:40;;;;;;;2.37;1.70;;;11.50;99.90;;;;;;5062812;28;20442;-83
2022/01/04 12:29:25;;;;;;;2.43;2.27;;;11.50;99.90;;;;;;5067724;28;20446;-84
2022/01/04 12:32:02;;;;;;;1.70;1.60;;;11.50;99.90;;;;;;5067079;28;20483;-83
2022/01/04 12:34:32;;;;;;;3.45;2.20;;;11.30;99.90;;;;;;5060783;28;20471;-84
2022/01/04 12:37:00;;;;;;;1.77;1.67;;;11.40;99.90;;;;;;5073472;28;20210;-84
2022/01/04 12:39:41;;;;;;;2.47;2.10;;;11.40;99.90;;;;;;5073475;28;20459;-85
2022/01/04 12:42:09;;;;;;;1.97;1.77;;;11.30;99.90;;;;;;5072455;28;20945;-84
2022/01/04 12:44:38;;;;;;;3.03;1.40;;;11.40;99.90;;;;;;5062667;28;20482;-84
2022/01/04 12:47:07;;;;;;;2.33;2.23;;;11.20;99.90;;;;;;5064358;28;20455;-84
2022/01/04 12:49:38;;;;;;;2.10;2.00;;;11.30;99.90;;;;;;5068813;28;20450;-84
2022/01/04 12:52:07;;;;;;;1.80;1.70;;;11.40;99.90;;;;;;5060647;28;20489;-84
2022/01/04 12:54:36;;;;;;;2.00;1.90;;;11.30;99.90;;;;;;5063181;28;20486;-85
2022/01/04 12:57:06;;;;;;;2.30;2.20;;;11.30;99.90;;;;;;5069210;28;20446;-83
2022/01/04 12:59:40;;;;;;;2.47;1.87;;;11.30;99.90;;;;;;5078720;28;20450;-84
2022/01/04 13:02:12;;;;;;;2.33;2.13;;;11.20;99.90;;;;;;5069277;28;20779;-86
2022/01/04 13:04:42;;;;;;;2.43;2.30;;;11.30;99.90;;;;;;5073365;28;20463;-86
2022/01/04 13:07:18;;;;;;;3.60;3.40;;;11.20;99.90;;;;;;5068256;28;20442;-87
2022/01/04 13:09:53;;;;;;;2.90;2.33;;;11.20;99.90;;;;;;5058422;28;20446;-84
2022/01/04 13:12:30;;;;;;;1.90;1.65;;;11.20;99.90;;;;;;5062099;28;20462;-85
2022/01/04 13:14:58;;;;;;;2.73;2.53;;;11.20;99.90;;;;;;5060878;28;20219;-85
2022/01/04 13:17:27;;;;;;;3.17;2.03;;;11.10;99.90;;;;;;5062672;28;20509;-85
2022/01/04 13:19:56;;;;;;;2.80;2.20;;;11.00;99.90;;;;;;5057357;28;20450;-86
2022/01/04 13:22:26;;;;;;;2.58;2.38;;;11.10;99.90;;;;;;5061456;28;20464;-85
2022/01/04 13:24:56;;;;;;;3.50;2.87;;;11.10;99.90;;;;;;5060861;28;20228;-85
2022/01/04 13:27:26;;;;;;;3.37;3.07;;;11.00;99.90;;;;;;5048759;28;20511;-83
2022/01/04 13:29:55;;;;;;;2.77;2.47;;;11.10;99.90;;;;;;5060112;28;20934;-85
2022/01/04 13:32:25;;;;;;;2.83;2.30;;;11.20;99.90;;;;;;5065639;28;20490;-87
2022/01/04 13:34:56;;;;;;;2.60;2.10;;;11.10;99.90;;;;;;5062796;28;20484;-85
2022/01/04 13:37:24;;;;;;;17.20;14.93;;;11.20;99.90;;;;;;5064085;28;20450;-84
2022/01/04 13:39:51;;;;;;;2.37;2.17;;;11.20;99.90;;;;;;5064825;28;20485;-86
2022/01/04 13:42:30;;;;;;;1.60;1.50;;;11.20;99.90;;;;;;5073097;28;20447;-85
2022/01/04 13:44:58;;;;;;;3.63;1.80;;;11.20;99.90;;;;;;5073177;28;20491;-86
2022/01/04 13:47:33;;;;;;;2.90;2.70;;;11.10;99.90;;;;;;5071916;28;20451;-86
2022/01/04 13:50:09;;;;;;;4.83;2.20;;;11.10;99.90;;;;;;5064869;28;20445;-86
2022/01/04 13:52:35;;;;;;;3.20;2.40;;;11.10;99.90;;;;;;5069074;28;20481;-85
2022/01/04 13:55:02;;;;;;;2.20;2.00;;;11.10;99.90;;;;;;5073191;28;20467;-86
2022/01/04 13:57:31;;;;;;;1.60;1.50;;;11.10;99.90;;;;;;5065136;28;20457;-85
2022/01/04 13:59:58;;;;;;;3.65;1.95;;;11.10;99.90;;;;;;5070839;28;20459;-85
2022/01/04 14:02:30;;;;;;;2.03;1.93;;;11.10;99.90;;;;;;5074326;28;20191;-85
2022/01/04 14:05:13;;;;;;;3.38;2.08;;;11.10;99.90;;;;;;5065287;28;21023;-83
2022/01/04 14:07:40;;;;;;;1.83;1.73;;;11.00;99.90;;;;;;5064168;28;20202;-86
2022/01/04 14:10:07;;;;;;;2.05;1.95;;;11.00;99.90;;;;;;5070892;28;20972;-84